sensor_id;sensor_type;location;lat;lon;timestamp;temperature;humidity
1405;DHT22;697;51.114;6.542;2023-02-17T00:01:12;11.90;99.90
1405;DHT22;697;51.114;6.542;2023-02-17T00:03:39;11.90;99.90
1405;DHT22;697;51.114;6.542;2023-02-17T00:06:07;11.90;99.90
1405;DHT22;697;51.114;6.542;2023-02-17T00:08:36;11.80;99.90
1405;DHT22;697;51.114;6.542;2023-02-17T00:11:03;11.80;99.90
1405;DHT22;697;51.114;6.542;2023-02-17T00:13:30;11.80;99.90
1405;DHT22;697;51.114;6.542;2023-02-17T00:16:06;11.80;99.90
1405;DHT22;697;51.114;6.542;2023-02-17T00:18:33;11.90;99.90
1405;DHT22;697;51.114;6.542;2023-02-17T00:21:00;11.90;99.90
1405;DHT22;697;51.114;6.542;2023-02-17T00:23:26;11.80;99.90
1405;DHT22;697;51.114;6.542;2023-02-17T00:25:54;11.80;99.90
1405;DHT22;697;51.114;6.542;2023-02-17T00:28:21;11.80;99.90
1405;DHT22;697;51.114;6.542;2023-02-17T00:30:48;11.90;99.90
1405;DHT22;697;51.114;6.542;2023-02-17T00:33:14;11.90;99.90
1405;DHT22;697;51.114;6.542;2023-02-17T00:35:41;11.80;99.90
1405;DHT22;697;51.114;6.542;2023-02-17T00:38:08;11.80;99.90
1405;DHT22;697;51.114;6.542;2023-02-17T00:40:34;11.80;99.90
1405;DHT22;697;51.114;6.542;2023-02-17T00:43:03;11.80;99.90
1405;DHT22;697;51.114;6.542;2023-02-17T00:45:29;11.90;99.90
1405;DHT22;697;51.114;6.542;2023-02-17T00:47:56;11.90;99.90
1405;DHT22;697;51.114;6.542;2023-02-17T00:50:23;11.80;99.90
1405;DHT22;697;51.114;6.542;2023-02-17T00:52:49;11.80;99.90
1405;DHT22;697;51.114;6.542;2023-02-17T00:55:16;11.80;99.90
1405;DHT22;697;51.114;6.542;2023-02-17T00:57:43;11.80;99.90
1405;DHT22;697;51.114;6.542;2023-02-17T01:00:12;11.80;99.90
1405;DHT22;697;51.114;6.542;2023-02-17T01:02:39;11.70;99.90
1405;DHT22;697;51.114;6.542;2023-02-17T01:05:06;11.70;99.90
1405;DHT22;697;51.114;6.542;2023-02-17T01:07:33;11.70;99.90
1405;DHT22;697;51.114;6.542;2023-02-17T01:10:01;11.70;99.90
1405;DHT22;697;51.114;6.542;2023-02-17T01:12:28;11.80;99.90
1405;DHT22;697;51.114;6.542;2023-02-17T01:14:55;11.70;99.90
1405;DHT22;697;51.114;6.542;2023-02-17T01:17:23;11.80;99.90
1405;DHT22;697;51.114;6.542;2023-02-17T01:19:50;11.70;99.90
1405;DHT22;697;51.114;6.542;2023-02-17T01:22:16;11.70;99.90
1405;DHT22;697;51.114;6.542;2023-02-17T01:24:43;11.70;99.90
1405;DHT22;697;51.114;6.542;2023-02-17T01:27:10;11.70;99.90
1405;DHT22;697;51.114;6.542;2023-02-17T01:29:37;11.80;99.90
1405;DHT22;697;51.114;6.542;2023-02-17T01:32:03;11.80;99.90
1405;DHT22;697;51.114;6.542;2023-02-17T01:34:31;11.80;99.90
1405;DHT22;697;51.114;6.542;2023-02-17T01:36:58;11.80;99.90
1405;DHT22;697;51.114;6.542;2023-02-17T01:39:25;11.80;99.90
1405;DHT22;697;51.114;6.542;2023-02-17T01:41:51;11.80;99.90
1405;DHT22;697;51.114;6.542;2023-02-17T01:44:20;11.70;99.90
1405;DHT22;697;51.114;6.542;2023-02-17T01:46:50;11.70;99.90
1405;DHT22;697;51.114;6.542;2023-02-17T01:49:22;11.70;99.90
1405;DHT22;697;51.114;6.542;2023-02-17T01:51:55;11.80;99.90
1405;DHT22;697;51.114;6.542;2023-02-17T01:54:25;11.80;99.90
1405;DHT22;697;51.114;6.542;2023-02-17T01:56:54;11.80;99.90
1405;DHT22;697;51.114;6.542;2023-02-17T01:59:22;11.70;99.90
1405;DHT22;697;51.114;6.542;2023-02-17T02:01:53;11.80;99.90
1405;DHT22;697;51.114;6.542;2023-02-17T02:04:23;11.80;99.90
1405;DHT22;697;51.114;6.542;2023-02-17T02:06:53;11.80;99.90
1405;DHT22;697;51.114;6.542;2023-02-17T02:09:22;11.80;99.90
1405;DHT22;697;51.114;6.542;2023-02-17T02:11:51;11.80;99.90
1405;DHT22;697;51.114;6.542;2023-02-17T02:14:19;11.80;99.90
1405;DHT22;697;51.114;6.542;2023-02-17T02:16:53;11.80;99.90
1405;DHT22;697;51.114;6.542;2023-02-17T02:19:55;11.80;99.90
1405;DHT22;697;51.114;6.542;2023-02-17T02:22:43;11.80;99.90
1405;DHT22;697;51.114;6.542;2023-02-17T02:25:30;11.80;99.90
1405;DHT22;697;51.114;6.542;2023-02-17T02:28:09;11.80;99.90
1405;DHT22;697;51.114;6.542;2023-02-17T02:30:49;11.80;99.90
1405;DHT22;697;51.114;6.542;2023-02-17T02:33:25;11.80;99.90
1405;DHT22;697;51.114;6.542;2023-02-17T02:35:59;11.80;99.90
1405;DHT22;697;51.114;6.542;2023-02-17T02:38:33;11.80;99.90
1405;DHT22;697;51.114;6.542;2023-02-17T02:41:04;11.80;99.90
1405;DHT22;697;51.114;6.542;2023-02-17T02:43:33;11.90;99.90
1405;DHT22;697;51.114;6.542;2023-02-17T02:45:59;11.90;99.90
1405;DHT22;697;51.114;6.542;2023-02-17T02:48:27;11.90;99.90
1405;DHT22;697;51.114;6.542;2023-02-17T02:51:00;11.90;99.90
1405;DHT22;697;51.114;6.542;2023-02-17T02:53:55;11.90;99.90
1405;DHT22;697;51.114;6.542;2023-02-17T02:56:31;11.90;99.90
1405;DHT22;697;51.114;6.542;2023-02-17T02:59:07;11.90;99.90
1405;DHT22;697;51.114;6.542;2023-02-17T03:01:52;11.90;99.90
1405;DHT22;697;51.114;6.542;2023-02-17T03:04:29;11.90;99.90
1405;DHT22;697;51.114;6.542;2023-02-17T03:07:04;11.90;99.90
1405;DHT22;697;51.114;6.542;2023-02-17T03:09:34;11.80;99.90
1405;DHT22;697;51.114;6.542;2023-02-17T03:12:02;11.80;99.90
1405;DHT22;697;51.114;6.542;2023-02-17T03:14:35;11.80;99.90
1405;DHT22;697;51.114;6.542;2023-02-17T03:17:02;11.80;99.90
1405;DHT22;697;51.114;6.542;2023-02-17T03:19:30;11.90;99.90
1405;DHT22;697;51.114;6.542;2023-02-17T03:22:03;11.90;99.90
1405;DHT22;697;51.114;6.542;2023-02-17T03:24:31;11.90;99.90
1405;DHT22;697;51.114;6.542;2023-02-17T03:26:58;11.90;99.90
1405;DHT22;697;51.114;6.542;2023-02-17T03:29:25;11.90;99.90
1405;DHT22;697;51.114;6.542;2023-02-17T03:31:52;11.90;99.90
1405;DHT22;697;51.114;6.542;2023-02-17T03:34:19;11.90;99.90
1405;DHT22;697;51.114;6.542;2023-02-17T03:36:47;11.90;99.90
1405;DHT22;697;51.114;6.542;2023-02-17T03:39:13;11.90;99.90
1405;DHT22;697;51.114;6.542;2023-02-17T03:41:41;11.90;99.90
1405;DHT22;697;51.114;6.542;2023-02-17T03:44:07;11.90;99.90
1405;DHT22;697;51.114;6.542;2023-02-17T03:46:34;11.90;99.90
1405;DHT22;697;51.114;6.542;2023-02-17T03:49:01;11.90;99.90
1405;DHT22;697;51.114;6.542;2023-02-17T03:51:27;12.00;99.90
1405;DHT22;697;51.114;6.542;2023-02-17T03:53:55;12.00;99.90
1405;DHT22;697;51.114;6.542;2023-02-17T03:56:22;12.00;99.90
1405;DHT22;697;51.114;6.542;2023-02-17T03:58:49;12.00;99.90
1405;DHT22;697;51.114;6.542;2023-02-17T04:01:16;12.00;99.90
1405;DHT22;697;51.114;6.542;2023-02-17T04:03:42;12.00;99.90
1405;DHT22;697;51.114;6.542;2023-02-17T04:06:09;12.00;99.90
1405;DHT22;697;51.114;6.542;2023-02-17T04:08:37;12.00;99.90
1405;DHT22;697;51.114;6.542;2023-02-17T04:11:07;12.00;99.90
1405;DHT22;697;51.114;6.542;2023-02-17T04:13:35;12.00;99.90
1405;DHT22;697;51.114;6.542;2023-02-17T04:16:02;12.00;99.90
1405;DHT22;697;51.114;6.542;2023-02-17T04:18:30;12.00;99.90
1405;DHT22;697;51.114;6.542;2023-02-17T04:20:57;11.90;99.90
1405;DHT22;697;51.114;6.542;2023-02-17T04:23:24;11.90;99.90
1405;DHT22;697;51.114;6.542;2023-02-17T04:25:50;12.00;99.90
1405;DHT22;697;51.114;6.542;2023-02-17T04:28:19;12.00;99.90
1405;DHT22;697;51.114;6.542;2023-02-17T04:30:48;12.00;99.90
1405;DHT22;697;51.114;6.542;2023-02-17T04:33:15;12.00;99.90
1405;DHT22;697;51.114;6.542;2023-02-17T04:35:42;12.00;99.90
1405;DHT22;697;51.114;6.542;2023-02-17T04:38:09;12.00;99.90
1405;DHT22;697;51.114;6.542;2023-02-17T04:40:37;12.00;99.90
1405;DHT22;697;51.114;6.542;2023-02-17T04:43:04;12.00;99.90
1405;DHT22;697;51.114;6.542;2023-02-17T04:45:32;11.90;99.90
1405;DHT22;697;51.114;6.542;2023-02-17T04:47:59;12.00;99.90
1405;DHT22;697;51.114;6.542;2023-02-17T04:50:26;12.00;99.90
1405;DHT22;697;51.114;6.542;2023-02-17T04:52:53;12.00;99.90
1405;DHT22;697;51.114;6.542;2023-02-17T04:55:20;12.00;99.90
1405;DHT22;697;51.114;6.542;2023-02-17T04:57:47;12.00;99.90
1405;DHT22;697;51.114;6.542;2023-02-17T05:00:14;12.00;99.90
1405;DHT22;697;51.114;6.542;2023-02-17T05:02:42;12.00;99.90
1405;DHT22;697;51.114;6.542;2023-02-17T05:05:08;12.00;99.90
1405;DHT22;697;51.114;6.542;2023-02-17T05:07:39;12.00;99.90
1405;DHT22;697;51.114;6.542;2023-02-17T05:10:07;12.00;99.90
1405;DHT22;697;51.114;6.542;2023-02-17T05:12:34;12.00;99.90
1405;DHT22;697;51.114;6.542;2023-02-17T05:15:00;12.00;99.90
1405;DHT22;697;51.114;6.542;2023-02-17T05:17:27;12.00;99.90
1405;DHT22;697;51.114;6.542;2023-02-17T05:19:55;12.00;99.90
1405;DHT22;697;51.114;6.542;2023-02-17T05:22:22;12.00;99.90
1405;DHT22;697;51.114;6.542;2023-02-17T05:24:49;12.00;99.90
1405;DHT22;697;51.114;6.542;2023-02-17T05:27:16;12.00;99.90
1405;DHT22;697;51.114;6.542;2023-02-17T05:29:42;12.00;99.90
1405;DHT22;697;51.114;6.542;2023-02-17T05:32:10;12.00;99.90
1405;DHT22;697;51.114;6.542;2023-02-17T05:34:36;12.00;99.90
1405;DHT22;697;51.114;6.542;2023-02-17T05:37:04;12.00;99.90
1405;DHT22;697;51.114;6.542;2023-02-17T05:39:31;12.00;99.90
1405;DHT22;697;51.114;6.542;2023-02-17T05:41:58;12.00;99.90
1405;DHT22;697;51.114;6.542;2023-02-17T05:44:25;12.00;99.90
1405;DHT22;697;51.114;6.542;2023-02-17T05:46:51;12.00;99.90
1405;DHT22;697;51.114;6.542;2023-02-17T05:49:18;11.90;99.90
1405;DHT22;697;51.114;6.542;2023-02-17T05:51:45;11.90;99.90
1405;DHT22;697;51.114;6.542;2023-02-17T05:54:13;12.00;99.90
1405;DHT22;697;51.114;6.542;2023-02-17T05:56:39;12.00;99.90
1405;DHT22;697;51.114;6.542;2023-02-17T05:59:06;12.00;99.90
1405;DHT22;697;51.114;6.542;2023-02-17T06:01:33;12.00;99.90
1405;DHT22;697;51.114;6.542;2023-02-17T06:03:59;12.00;99.90
1405;DHT22;697;51.114;6.542;2023-02-17T06:06:26;12.00;99.90
1405;DHT22;697;51.114;6.542;2023-02-17T06:08:53;12.10;99.90
1405;DHT22;697;51.114;6.542;2023-02-17T06:11:21;12.00;99.90
1405;DHT22;697;51.114;6.542;2023-02-17T06:13:48;12.00;99.90
1405;DHT22;697;51.114;6.542;2023-02-17T06:16:14;12.00;99.90
1405;DHT22;697;51.114;6.542;2023-02-17T06:18:41;12.00;99.90
1405;DHT22;697;51.114;6.542;2023-02-17T06:21:08;12.00;99.90
1405;DHT22;697;51.114;6.542;2023-02-17T06:23:34;12.00;99.90
1405;DHT22;697;51.114;6.542;2023-02-17T06:26:01;12.00;99.90
1405;DHT22;697;51.114;6.542;2023-02-17T06:28:29;12.00;99.90
1405;DHT22;697;51.114;6.542;2023-02-17T06:30:56;12.00;99.90
1405;DHT22;697;51.114;6.542;2023-02-17T06:33:23;12.00;99.90
1405;DHT22;697;51.114;6.542;2023-02-17T06:35:50;12.00;99.90
1405;DHT22;697;51.114;6.542;2023-02-17T06:38:17;12.00;99.90
1405;DHT22;697;51.114;6.542;2023-02-17T06:40:44;12.00;99.90
1405;DHT22;697;51.114;6.542;2023-02-17T06:43:11;12.00;99.90
1405;DHT22;697;51.114;6.542;2023-02-17T06:45:39;12.00;99.90
1405;DHT22;697;51.114;6.542;2023-02-17T06:48:05;12.00;99.90
1405;DHT22;697;51.114;6.542;2023-02-17T06:50:32;12.00;99.90
1405;DHT22;697;51.114;6.542;2023-02-17T06:53:00;12.00;99.90
1405;DHT22;697;51.114;6.542;2023-02-17T06:55:27;12.00;99.90
1405;DHT22;697;51.114;6.542;2023-02-17T06:57:53;12.00;99.90
1405;DHT22;697;51.114;6.542;2023-02-17T07:00:21;12.00;99.90
1405;DHT22;697;51.114;6.542;2023-02-17T07:02:49;12.00;99.90
1405;DHT22;697;51.114;6.542;2023-02-17T07:05:16;12.00;99.90
1405;DHT22;697;51.114;6.542;2023-02-17T07:07:43;12.00;99.90
1405;DHT22;697;51.114;6.542;2023-02-17T07:10:10;12.00;99.90
1405;DHT22;697;51.114;6.542;2023-02-17T07:12:37;12.00;99.90
1405;DHT22;697;51.114;6.542;2023-02-17T07:15:04;12.00;99.90
1405;DHT22;697;51.114;6.542;2023-02-17T07:17:31;12.00;99.90
1405;DHT22;697;51.114;6.542;2023-02-17T07:19:59;12.00;99.90
1405;DHT22;697;51.114;6.542;2023-02-17T07:22:25;12.00;99.90
1405;DHT22;697;51.114;6.542;2023-02-17T07:24:52;11.90;99.90
1405;DHT22;697;51.114;6.542;2023-02-17T07:27:19;12.00;99.90
1405;DHT22;697;51.114;6.542;2023-02-17T07:29:45;12.00;99.90
1405;DHT22;697;51.114;6.542;2023-02-17T07:32:12;12.00;99.90
1405;DHT22;697;51.114;6.542;2023-02-17T07:34:39;12.00;99.90
1405;DHT22;697;51.114;6.542;2023-02-17T07:37:08;12.00;99.90
1405;DHT22;697;51.114;6.542;2023-02-17T07:39:34;12.00;99.90
1405;DHT22;697;51.114;6.542;2023-02-17T07:42:01;12.10;99.90
1405;DHT22;697;51.114;6.542;2023-02-17T07:44:29;12.10;99.90
1405;DHT22;697;51.114;6.542;2023-02-17T07:46:56;12.10;99.90
1405;DHT22;697;51.114;6.542;2023-02-17T07:49:23;12.10;99.90
1405;DHT22;697;51.114;6.542;2023-02-17T07:51:50;12.10;99.90
1405;DHT22;697;51.114;6.542;2023-02-17T07:54:18;12.20;99.90
1405;DHT22;697;51.114;6.542;2023-02-17T07:56:44;12.10;99.90
1405;DHT22;697;51.114;6.542;2023-02-17T07:59:12;12.20;99.90
1405;DHT22;697;51.114;6.542;2023-02-17T08:01:39;12.10;99.90
1405;DHT22;697;51.114;6.542;2023-02-17T08:04:06;12.20;99.90
1405;DHT22;697;51.114;6.542;2023-02-17T08:06:33;12.10;99.90
1405;DHT22;697;51.114;6.542;2023-02-17T08:08:59;12.20;99.90
1405;DHT22;697;51.114;6.542;2023-02-17T08:11:45;12.30;99.90
1405;DHT22;697;51.114;6.542;2023-02-17T08:14:30;12.30;99.90
1405;DHT22;697;51.114;6.542;2023-02-17T08:16:57;12.30;99.90
1405;DHT22;697;51.114;6.542;2023-02-17T08:19:24;12.40;99.90
1405;DHT22;697;51.114;6.542;2023-02-17T08:21:52;12.40;99.90
1405;DHT22;697;51.114;6.542;2023-02-17T08:24:19;12.40;99.90
1405;DHT22;697;51.114;6.542;2023-02-17T08:26:47;12.50;99.90
1405;DHT22;697;51.114;6.542;2023-02-17T08:29:14;12.50;99.90
1405;DHT22;697;51.114;6.542;2023-02-17T08:31:41;12.60;99.90
1405;DHT22;697;51.114;6.542;2023-02-17T08:34:10;12.60;99.90
1405;DHT22;697;51.114;6.542;2023-02-17T08:36:37;12.60;99.90
1405;DHT22;697;51.114;6.542;2023-02-17T08:39:09;12.60;99.90
1405;DHT22;697;51.114;6.542;2023-02-17T08:41:37;12.60;99.90
1405;DHT22;697;51.114;6.542;2023-02-17T08:44:08;12.70;99.90
1405;DHT22;697;51.114;6.542;2023-02-17T08:46:35;12.80;99.90
1405;DHT22;697;51.114;6.542;2023-02-17T08:49:03;12.80;99.90
1405;DHT22;697;51.114;6.542;2023-02-17T08:51:30;12.80;99.90
1405;DHT22;697;51.114;6.542;2023-02-17T08:53:59;12.90;99.90
1405;DHT22;697;51.114;6.542;2023-02-17T08:56:26;13.00;99.90
1405;DHT22;697;51.114;6.542;2023-02-17T08:58:53;12.90;99.90
1405;DHT22;697;51.114;6.542;2023-02-17T09:01:22;13.00;99.90
1405;DHT22;697;51.114;6.542;2023-02-17T09:03:51;13.00;99.90
1405;DHT22;697;51.114;6.542;2023-02-17T09:06:18;13.00;99.90
1405;DHT22;697;51.114;6.542;2023-02-17T09:08:45;13.10;99.90
1405;DHT22;697;51.114;6.542;2023-02-17T09:11:14;13.10;99.90
1405;DHT22;697;51.114;6.542;2023-02-17T09:13:42;13.10;99.90
1405;DHT22;697;51.114;6.542;2023-02-17T09:16:09;13.20;99.90
1405;DHT22;697;51.114;6.542;2023-02-17T09:18:37;13.20;99.90
1405;DHT22;697;51.114;6.542;2023-02-17T09:21:05;13.30;99.90
1405;DHT22;697;51.114;6.542;2023-02-17T09:23:32;13.30;99.90
1405;DHT22;697;51.114;6.542;2023-02-17T09:26:03;13.30;99.90
1405;DHT22;697;51.114;6.542;2023-02-17T09:28:31;13.30;99.90
1405;DHT22;697;51.114;6.542;2023-02-17T09:30:58;13.30;99.90
1405;DHT22;697;51.114;6.542;2023-02-17T09:33:25;13.40;99.90
1405;DHT22;697;51.114;6.542;2023-02-17T09:35:53;13.50;99.90
1405;DHT22;697;51.114;6.542;2023-02-17T09:38:20;13.50;99.90
1405;DHT22;697;51.114;6.542;2023-02-17T09:40:48;13.60;99.90
1405;DHT22;697;51.114;6.542;2023-02-17T09:43:18;13.60;99.90
1405;DHT22;697;51.114;6.542;2023-02-17T09:45:50;13.60;99.90
1405;DHT22;697;51.114;6.542;2023-02-17T09:48:20;13.60;99.90
1405;DHT22;697;51.114;6.542;2023-02-17T09:50:54;13.60;99.90
1405;DHT22;697;51.114;6.542;2023-02-17T09:53:26;13.70;99.90
1405;DHT22;697;51.114;6.542;2023-02-17T09:55:57;13.80;99.90
1405;DHT22;697;51.114;6.542;2023-02-17T09:58:29;13.90;99.90
1405;DHT22;697;51.114;6.542;2023-02-17T10:00:59;14.00;99.90
1405;DHT22;697;51.114;6.542;2023-02-17T10:03:30;14.00;99.90
1405;DHT22;697;51.114;6.542;2023-02-17T10:06:07;14.00;99.90
1405;DHT22;697;51.114;6.542;2023-02-17T10:08:41;14.00;99.90
1405;DHT22;697;51.114;6.542;2023-02-17T10:11:15;14.10;99.90
1405;DHT22;697;51.114;6.542;2023-02-17T10:13:45;14.00;99.90
1405;DHT22;697;51.114;6.542;2023-02-17T10:16:19;14.00;99.90
1405;DHT22;697;51.114;6.542;2023-02-17T10:18:51;14.10;99.90
1405;DHT22;697;51.114;6.542;2023-02-17T10:21:26;14.20;99.90
1405;DHT22;697;51.114;6.542;2023-02-17T10:23:53;14.30;99.90
1405;DHT22;697;51.114;6.542;2023-02-17T10:26:26;14.40;99.90
1405;DHT22;697;51.114;6.542;2023-02-17T10:28:59;14.50;99.90
1405;DHT22;697;51.114;6.542;2023-02-17T10:31:40;14.60;99.90
1405;DHT22;697;51.114;6.542;2023-02-17T10:34:12;14.60;99.90
1405;DHT22;697;51.114;6.542;2023-02-17T10:36:50;14.70;99.90
1405;DHT22;697;51.114;6.542;2023-02-17T10:39:31;14.80;99.90
1405;DHT22;697;51.114;6.542;2023-02-17T10:42:00;14.80;99.90
1405;DHT22;697;51.114;6.542;2023-02-17T10:44:30;14.70;99.90
1405;DHT22;697;51.114;6.542;2023-02-17T10:46:59;14.70;99.90
1405;DHT22;697;51.114;6.542;2023-02-17T10:49:28;14.70;99.90
1405;DHT22;697;51.114;6.542;2023-02-17T10:52:00;14.60;99.90
1405;DHT22;697;51.114;6.542;2023-02-17T10:54:29;14.50;99.90
1405;DHT22;697;51.114;6.542;2023-02-17T10:57:00;14.50;99.90
1405;DHT22;697;51.114;6.542;2023-02-17T10:59:31;14.50;99.90
1405;DHT22;697;51.114;6.542;2023-02-17T11:02:11;14.50;99.90
1405;DHT22;697;51.114;6.542;2023-02-17T11:04:40;14.50;99.90
1405;DHT22;697;51.114;6.542;2023-02-17T11:07:10;14.60;99.90
1405;DHT22;697;51.114;6.542;2023-02-17T11:09:44;14.60;99.90
1405;DHT22;697;51.114;6.542;2023-02-17T11:12:12;14.70;99.90
1405;DHT22;697;51.114;6.542;2023-02-17T11:14:44;14.70;99.90
1405;DHT22;697;51.114;6.542;2023-02-17T11:17:15;14.70;99.90
1405;DHT22;697;51.114;6.542;2023-02-17T11:19:54;14.80;99.90
1405;DHT22;697;51.114;6.542;2023-02-17T11:22:34;14.80;99.90
1405;DHT22;697;51.114;6.542;2023-02-17T11:25:06;14.90;99.90
1405;DHT22;697;51.114;6.542;2023-02-17T11:27:33;14.80;99.90
1405;DHT22;697;51.114;6.542;2023-02-17T11:30:08;14.80;99.90
1405;DHT22;697;51.114;6.542;2023-02-17T11:32:35;15.00;99.90
1405;DHT22;697;51.114;6.542;2023-02-17T11:35:02;15.00;99.90
1405;DHT22;697;51.114;6.542;2023-02-17T11:37:36;15.10;99.90
1405;DHT22;697;51.114;6.542;2023-02-17T11:40:22;15.10;99.90
1405;DHT22;697;51.114;6.542;2023-02-17T11:42:55;15.20;99.90
1405;DHT22;697;51.114;6.542;2023-02-17T11:45:22;15.30;99.70
1405;DHT22;697;51.114;6.542;2023-02-17T11:47:56;15.40;99.60
1405;DHT22;697;51.114;6.542;2023-02-17T11:50:29;15.40;99.20
1405;DHT22;697;51.114;6.542;2023-02-17T11:56:07;15.50;99.10
1405;DHT22;697;51.114;6.542;2023-02-17T11:58:47;15.50;98.90
1405;DHT22;697;51.114;6.542;2023-02-17T12:01:27;15.50;99.20
1405;DHT22;697;51.114;6.542;2023-02-17T12:04:11;15.50;99.10
1405;DHT22;697;51.114;6.542;2023-02-17T12:06:47;15.40;99.70
1405;DHT22;697;51.114;6.542;2023-02-17T12:09:25;15.30;99.50
1405;DHT22;697;51.114;6.542;2023-02-17T12:11:59;15.20;99.90
1405;DHT22;697;51.114;6.542;2023-02-17T12:14:42;15.20;99.90
1405;DHT22;697;51.114;6.542;2023-02-17T12:17:16;15.20;99.90
1405;DHT22;697;51.114;6.542;2023-02-17T12:19:50;15.30;99.90
1405;DHT22;697;51.114;6.542;2023-02-17T12:22:27;15.30;99.50
1405;DHT22;697;51.114;6.542;2023-02-17T12:25:17;15.20;99.30
1405;DHT22;697;51.114;6.542;2023-02-17T12:27:53;15.10;99.60
1405;DHT22;697;51.114;6.542;2023-02-17T12:30:30;15.10;99.50
1405;DHT22;697;51.114;6.542;2023-02-17T12:36:06;15.40;99.10
1405;DHT22;697;51.114;6.542;2023-02-17T12:38:56;15.70;98.70
1405;DHT22;697;51.114;6.542;2023-02-17T12:41:30;16.00;97.80
1405;DHT22;697;51.114;6.542;2023-02-17T12:44:01;16.00;97.20
1405;DHT22;697;51.114;6.542;2023-02-17T12:46:31;16.00;97.20
1405;DHT22;697;51.114;6.542;2023-02-17T12:49:05;15.90;97.30
1405;DHT22;697;51.114;6.542;2023-02-17T12:51:38;16.00;97.00
1405;DHT22;697;51.114;6.542;2023-02-17T12:54:11;16.00;96.80
1405;DHT22;697;51.114;6.542;2023-02-17T12:56:54;15.90;96.90
1405;DHT22;697;51.114;6.542;2023-02-17T12:59:26;16.00;96.60
1405;DHT22;697;51.114;6.542;2023-02-17T13:02:00;16.10;97.00
1405;DHT22;697;51.114;6.542;2023-02-17T13:04:28;16.00;97.00
1405;DHT22;697;51.114;6.542;2023-02-17T13:10:18;16.00;97.50
1405;DHT22;697;51.114;6.542;2023-02-17T13:13:00;15.80;97.40
1405;DHT22;697;51.114;6.542;2023-02-17T13:15:36;15.80;97.70
1405;DHT22;697;51.114;6.542;2023-02-17T13:18:06;15.90;97.70
1405;DHT22;697;51.114;6.542;2023-02-17T13:20:55;16.00;97.60
1405;DHT22;697;51.114;6.542;2023-02-17T13:23:29;15.90;97.50
1405;DHT22;697;51.114;6.542;2023-02-17T13:26:12;15.80;97.50
1405;DHT22;697;51.114;6.542;2023-02-17T13:28:40;15.70;97.90
1405;DHT22;697;51.114;6.542;2023-02-17T13:31:13;15.70;98.00
1405;DHT22;697;51.114;6.542;2023-02-17T13:33:46;15.60;98.20
1405;DHT22;697;51.114;6.542;2023-02-17T13:36:16;15.60;98.50
1405;DHT22;697;51.114;6.542;2023-02-17T13:38:56;15.60;98.80
1405;DHT22;697;51.114;6.542;2023-02-17T13:41:25;15.60;98.60
1405;DHT22;697;51.114;6.542;2023-02-17T13:43:57;15.50;98.60
1405;DHT22;697;51.114;6.542;2023-02-17T13:46:25;15.50;98.70
1405;DHT22;697;51.114;6.542;2023-02-17T13:49:00;15.50;98.70
1405;DHT22;697;51.114;6.542;2023-02-17T13:51:29;15.50;98.70
1405;DHT22;697;51.114;6.542;2023-02-17T13:54:04;15.40;98.60
1405;DHT22;697;51.114;6.542;2023-02-17T13:56:31;15.40;98.60
1405;DHT22;697;51.114;6.542;2023-02-17T13:59:07;15.40;98.50
1405;DHT22;697;51.114;6.542;2023-02-17T14:01:36;15.40;98.00
1405;DHT22;697;51.114;6.542;2023-02-17T14:04:05;15.50;97.80
1405;DHT22;697;51.114;6.542;2023-02-17T14:06:42;15.60;97.50
1405;DHT22;697;51.114;6.542;2023-02-17T14:09:21;15.60;97.30
1405;DHT22;697;51.114;6.542;2023-02-17T14:11:49;15.80;96.70
1405;DHT22;697;51.114;6.542;2023-02-17T14:14:18;15.90;95.50
1405;DHT22;697;51.114;6.542;2023-02-17T14:16:56;16.00;95.30
1405;DHT22;697;51.114;6.542;2023-02-17T14:19:23;16.00;94.50
1405;DHT22;697;51.114;6.542;2023-02-17T14:21:59;15.90;94.80
1405;DHT22;697;51.114;6.542;2023-02-17T14:24:27;15.80;95.00
1405;DHT22;697;51.114;6.542;2023-02-17T14:26:57;15.80;94.80
1405;DHT22;697;51.114;6.542;2023-02-17T14:29:25;15.70;94.90
1405;DHT22;697;51.114;6.542;2023-02-17T14:32:03;15.60;94.50
1405;DHT22;697;51.114;6.542;2023-02-17T14:34:31;15.50;94.20
1405;DHT22;697;51.114;6.542;2023-02-17T14:37:07;15.40;94.10
1405;DHT22;697;51.114;6.542;2023-02-17T14:39:33;15.20;94.30
1405;DHT22;697;51.114;6.542;2023-02-17T14:42:00;15.10;94.60
1405;DHT22;697;51.114;6.542;2023-02-17T14:44:28;15.10;94.80
1405;DHT22;697;51.114;6.542;2023-02-17T14:46:55;15.00;95.00
1405;DHT22;697;51.114;6.542;2023-02-17T14:49:22;15.00;95.00
1405;DHT22;697;51.114;6.542;2023-02-17T14:51:48;14.90;95.10
1405;DHT22;697;51.114;6.542;2023-02-17T14:54:16;14.80;95.60
1405;DHT22;697;51.114;6.542;2023-02-17T14:56:47;14.80;96.00
1405;DHT22;697;51.114;6.542;2023-02-17T14:59:14;14.80;95.90
1405;DHT22;697;51.114;6.542;2023-02-17T15:01:43;14.70;96.30
1405;DHT22;697;51.114;6.542;2023-02-17T15:04:09;14.70;96.60
1405;DHT22;697;51.114;6.542;2023-02-17T15:06:39;14.70;96.70
1405;DHT22;697;51.114;6.542;2023-02-17T15:09:09;14.70;96.50
1405;DHT22;697;51.114;6.542;2023-02-17T15:11:38;14.60;96.40
1405;DHT22;697;51.114;6.542;2023-02-17T15:14:11;14.60;96.50
1405;DHT22;697;51.114;6.542;2023-02-17T15:16:39;14.50;96.70
1405;DHT22;697;51.114;6.542;2023-02-17T15:19:07;14.50;96.80
1405;DHT22;697;51.114;6.542;2023-02-17T15:21:35;14.40;97.00
1405;DHT22;697;51.114;6.542;2023-02-17T15:24:11;14.40;97.20
1405;DHT22;697;51.114;6.542;2023-02-17T15:26:39;14.30;97.30
1405;DHT22;697;51.114;6.542;2023-02-17T15:29:10;14.30;97.50
1405;DHT22;697;51.114;6.542;2023-02-17T15:31:40;14.20;97.80
1405;DHT22;697;51.114;6.542;2023-02-17T15:34:13;14.20;97.90
1405;DHT22;697;51.114;6.542;2023-02-17T15:36:40;14.10;98.10
1405;DHT22;697;51.114;6.542;2023-02-17T15:39:08;14.20;98.40
1405;DHT22;697;51.114;6.542;2023-02-17T15:41:35;14.10;98.60
1405;DHT22;697;51.114;6.542;2023-02-17T15:44:03;14.10;98.80
1405;DHT22;697;51.114;6.542;2023-02-17T15:46:31;14.00;99.00
1405;DHT22;697;51.114;6.542;2023-02-17T15:48:58;14.00;99.20
1405;DHT22;697;51.114;6.542;2023-02-17T15:51:26;13.90;99.60
1405;DHT22;697;51.114;6.542;2023-02-17T15:53:53;13.90;99.90
1405;DHT22;697;51.114;6.542;2023-02-17T15:56:21;13.80;99.90
1405;DHT22;697;51.114;6.542;2023-02-17T15:58:49;13.80;99.90
1405;DHT22;697;51.114;6.542;2023-02-17T16:01:21;13.70;99.90
1405;DHT22;697;51.114;6.542;2023-02-17T16:03:50;13.60;99.90
1405;DHT22;697;51.114;6.542;2023-02-17T16:06:16;13.50;99.90
1405;DHT22;697;51.114;6.542;2023-02-17T16:08:44;13.40;99.90
1405;DHT22;697;51.114;6.542;2023-02-17T16:11:12;13.30;99.90
1405;DHT22;697;51.114;6.542;2023-02-17T16:13:39;13.20;99.90
1405;DHT22;697;51.114;6.542;2023-02-17T16:16:14;13.10;99.90
1405;DHT22;697;51.114;6.542;2023-02-17T16:18:41;13.10;99.90
1405;DHT22;697;51.114;6.542;2023-02-17T16:21:09;13.10;99.90
1405;DHT22;697;51.114;6.542;2023-02-17T16:23:35;13.10;99.90
1405;DHT22;697;51.114;6.542;2023-02-17T16:26:05;12.90;99.90
1405;DHT22;697;51.114;6.542;2023-02-17T16:28:31;12.90;99.90
1405;DHT22;697;51.114;6.542;2023-02-17T16:30:58;12.90;99.90
1405;DHT22;697;51.114;6.542;2023-02-17T16:33:25;12.80;99.90
1405;DHT22;697;51.114;6.542;2023-02-17T16:35:52;12.80;99.90
1405;DHT22;697;51.114;6.542;2023-02-17T16:38:21;12.70;99.90
1405;DHT22;697;51.114;6.542;2023-02-17T16:40:49;12.70;99.90
1405;DHT22;697;51.114;6.542;2023-02-17T16:43:19;12.70;99.90